Morton S Bouchard Jr — WSE9678 — position and weather

sailwx.info

Track history (hours):
 
Tides and Currents Weather Stations Pressure Air Temp Water Temp Dewpoint Dewpoint Depression Visibility Wind Speed Wind Dir Waves Ship Positions

Morton S Bouchard Jr

Owner: BOUCHARD TRANSPORTATION CO INC, MELVILLE, NY. More information available from US FCC via Universal Licensing System and Coast Guard Vessel Documentation Center.

Last reported at 2014-Oct-25 13:33 UTC. Time now 2014-Oct-25 14:31 UTC.
Position N 40°48' W 073°54'.

Length 33 m; draft 6 m.

Type: Tug. MMSI: 367006550.

Date/timePositionNaut miles runAvg speedWind from/ knotsBaromVisibWave heightAir tempDewpointWater temp
2014-Oct-25 13:33N 40°48' W 073°54'0 0.0
2014-Oct-25 12:33N 40°48' W 073°54'0 0.0
2014-Oct-25 11:33N 40°48' W 073°54'0 0.0
2014-Oct-25 10:33N 40°48' W 073°54'0 0.0
2014-Oct-25 09:33N 40°48' W 073°54'3 2.5
2014-Oct-25 08:33N 40°46' W 073°57'4 4.0
2014-Oct-25 07:34N 40°43' W 073°58'5 4.7
2014-Oct-25 06:34N 40°40' W 074°03'6 6.3
2014-Oct-25 05:33N 40°39' W 074°11'1 1.0
2014-Oct-25 04:34N 40°39' W 074°10'2 2.2
2014-Oct-25 03:33N 40°39' W 074°07'0 0.0
2014-Oct-25 02:34N 40°39' W 074°07'0 0.0
2014-Oct-25 01:33N 40°39' W 074°07'0 0.0
2014-Oct-25 00:34N 40°39' W 074°07'0 0.0
2014-Oct-24 23:33N 40°39' W 074°07'0 0.0
2014-Oct-24 22:33N 40°39' W 074°07'0 0.0
2014-Oct-24 21:33N 40°39' W 074°07'0 0.0
2014-Oct-24 20:33N 40°39' W 074°07'0 0.0
2014-Oct-24 19:33N 40°39' W 074°07'0 0.0
2014-Oct-24 18:34N 40°39' W 074°07'0 0.0
2014-Oct-24 17:32N 40°39' W 074°07'4 3.8
2014-Oct-24 16:28N 40°38' W 074°12'5 4.9
2014-Oct-24 15:33N 40°39' W 074°07'8 8.1
2014-Oct-24 14:34N 40°44' W 073°58'6 5.6
2014-Oct-24 13:32N 40°48' W 073°53'20 6.7
2014-Oct-24 10:33N 40°60' W 073°32'9 9.1
2014-Oct-24 09:33N 41°03' W 073°20'9 9.0
2014-Oct-24 08:32N 41°06' W 073°09'9 8.7
2014-Oct-24 07:33N 41°11' W 073°00'8 7.6
2014-Oct-24 06:33N 41°17' W 072°55'0 0.2
2014-Oct-24 05:15N 41°18' W 072°54'0 0.0
2014-Oct-23 22:33N 41°17' W 072°55'6 6.5
2014-Oct-23 21:33N 41°12' W 072°59'8 8.0
2014-Oct-23 20:33N 41°07' W 073°07'8 8.4
2014-Oct-23 19:33N 41°04' W 073°17'11 9.1
2014-Oct-23 18:22N 41°00' W 073°31'10 8.6
2014-Oct-23 17:12N 40°55' W 073°42'7 0.9
2014-Oct-23 09:25N 40°49' W 073°47'0 0.0
2014-Oct-23 06:32N 40°49' W 073°47'0 0.0
2014-Oct-22 20:31N 40°49' W 073°47'0 0.0
2014-Oct-22 18:26N 40°49' W 073°47'0 0.0
2014-Oct-22 17:32N 40°49' W 073°47'0 0.0
2014-Oct-22 16:23N 40°49' W 073°47'0 0.0
2014-Oct-22 13:30N 40°49' W 073°47'0 0.0
2014-Oct-22 12:23N 40°49' W 073°47'0 0.0
2014-Oct-22 11:32N 40°49' W 073°47'0 0.1
2014-Oct-22 10:27N 40°49' W 073°47'2 1.0
2014-Oct-22 08:33N 40°48' W 073°49'8 7.9
2014-Oct-22 07:34N 40°45' W 073°58'6 6.0
2014-Oct-22 06:34N 40°40' W 074°03'1 0.7
2014-Oct-22 05:34N 40°39' W 074°03'0 0.0
2014-Oct-22 04:34N 40°39' W 074°03'0 0.0
2014-Oct-22 03:33N 40°39' W 074°03'0 0.1
2014-Oct-22 02:34N 40°39' W 074°03'0 0.2
2014-Oct-22 01:34N 40°39' W 074°03'0 0.1
2014-Oct-22 00:33N 40°39' W 074°03'0 0.1
2014-Oct-21 23:33N 40°39' W 074°03'0 0.0
2014-Oct-21 22:33N 40°39' W 074°03'0 0.1
2014-Oct-21 21:33N 40°39' W 074°03'0 0.2
2014-Oct-21 20:33N 40°39' W 074°03'0 0.1
2014-Oct-21 19:33N 40°39' W 074°03'0 0.0
2014-Oct-21 18:34N 40°39' W 074°03'3 3.3
2014-Oct-21 17:33N 40°39' W 074°07'2 1.7
2014-Oct-21 16:33N 40°38' W 074°09'0 0.2
2014-Oct-21 15:34N 40°38' W 074°09'0 0.0
2014-Oct-21 14:33N 40°38' W 074°09'0 0.2
2014-Oct-21 13:33N 40°38' W 074°09'7 7.1
2014-Oct-21 12:34N 40°42' W 074°01'6 6.4
2014-Oct-21 11:33N 40°47' W 073°56'2 2.2
2014-Oct-21 10:33N 40°48' W 073°53'1110.7
2014-Oct-21 09:33N 40°40' W 074°03'4 3.8
2014-Oct-21 08:33N 40°39' W 074°07'0 0.0
2014-Oct-21 07:33N 40°39' W 074°07'0 0.0
2014-Oct-21 06:33N 40°39' W 074°07'0 0.0
2014-Oct-21 05:33N 40°39' W 074°07'0 0.0
2014-Oct-21 04:33N 40°39' W 074°07'0 0.0
2014-Oct-21 03:33N 40°39' W 074°07'0 0.0
2014-Oct-21 02:33N 40°39' W 074°07'0 0.0
2014-Oct-21 01:33N 40°39' W 074°07'0 0.0
2014-Oct-21 00:33N 40°39' W 074°07'0 0.0
2014-Oct-20 23:33N 40°39' W 074°07'0 0.0
2014-Oct-20 22:33N 40°39' W 074°07'0 0.0
2014-Oct-20 21:33N 40°39' W 074°07'0 0.0
2014-Oct-20 20:33N 40°39' W 074°07'0 0.0
2014-Oct-20 19:33N 40°39' W 074°07'0 0.0
2014-Oct-20 18:33N 40°39' W 074°07'0 0.2
2014-Oct-20 17:33N 40°39' W 074°07'8 7.1
2014-Oct-20 16:28N 40°33' W 074°15'1 0.8
2014-Oct-20 15:29N 40°33' W 074°15'0 0.2
2014-Oct-20 14:19N 40°33' W 074°15'0 0.0
2014-Oct-20 13:29N 40°33' W 074°15'3 2.2
2014-Oct-20 12:15N 40°35' W 074°13'4 6.3
2014-Oct-20 11:33N 40°39' W 074°10'1 0.6
2014-Oct-20 10:33N 40°38' W 074°09'0 0.0
2014-Oct-20 09:33N 40°38' W 074°09'0 0.0
2014-Oct-20 08:33N 40°38' W 074°09'0 0.0
2014-Oct-20 07:33N 40°38' W 074°09'0 0.0
2014-Oct-20 06:33N 40°38' W 074°09'0 0.0
2014-Oct-20 05:33N 40°38' W 074°09'0 0.0
2014-Oct-20 04:33N 40°38' W 074°09'0 0.0
2014-Oct-20 03:33N 40°38' W 074°09'0 0.0
2014-Oct-20 02:33N 40°38' W 074°09'0 0.0
2014-Oct-20 01:33N 40°38' W 074°09'0 0.0
2014-Oct-20 00:33N 40°38' W 074°09'0 0.0
2014-Oct-19 23:33N 40°38' W 074°09'0 0.0
2014-Oct-19 22:33N 40°38' W 074°09'0 0.0
2014-Oct-19 21:33N 40°38' W 074°09'0 0.0
2014-Oct-19 20:33N 40°38' W 074°09'0 0.0
2014-Oct-19 19:31N 40°38' W 074°09'0 0.0
2014-Oct-19 18:33N 40°38' W 074°09'0 0.0
2014-Oct-19 17:33N 40°38' W 074°09'0 0.0
2014-Oct-19 16:33N 40°38' W 074°10'0 0.0
2014-Oct-19 15:33N 40°38' W 074°10'0 0.0
2014-Oct-19 14:33N 40°38' W 074°10'0 0.0
2014-Oct-19 13:33N 40°38' W 074°09'0 0.0
2014-Oct-19 12:33N 40°38' W 074°09'0 0.0
2014-Oct-19 11:33N 40°38' W 074°10'0 0.0
2014-Oct-19 10:33N 40°38' W 074°10'0 0.0
2014-Oct-19 09:29N 40°38' W 074°09'0 0.0
2014-Oct-19 08:33N 40°38' W 074°10'0 0.0
2014-Oct-19 07:33N 40°38' W 074°09'0 0.0
2014-Oct-19 06:33N 40°38' W 074°10'0 0.0
2014-Oct-19 05:33N 40°38' W 074°10'0 0.0
2014-Oct-19 04:33N 40°38' W 074°09'0 0.0
2014-Oct-19 03:33N 40°38' W 074°09'0 0.0
2014-Oct-19 02:33N 40°38' W 074°10'0 0.0
2014-Oct-19 01:33N 40°38' W 074°10'0 0.0
2014-Oct-19 00:33N 40°38' W 074°09'0 0.0
2014-Oct-18 23:33N 40°38' W 074°09'0 0.0
2014-Oct-18 22:33N 40°38' W 074°09'0 0.0
2014-Oct-18 21:33N 40°38' W 074°10'0 0.0
2014-Oct-18 20:33N 40°38' W 074°10'0 0.0
2014-Oct-18 19:33N 40°38' W 074°10'1 1.4
2014-Oct-18 18:33N 40°39' W 074°08'5 4.6
2014-Oct-18 17:33N 40°40' W 074°02'0 0.1
2014-Oct-18 16:29N 40°40' W 074°02'0 0.1
2014-Oct-18 15:31N 40°40' W 074°02'0 0.1
2014-Oct-18 14:33N 40°40' W 074°02'0 0.0
2014-Oct-18 13:30N 40°40' W 074°02'0 0.0
2014-Oct-18 12:33N 40°40' W 074°02'0 0.2
2014-Oct-18 11:33N 40°40' W 074°02'0 0.0
2014-Oct-18 10:28N 40°40' W 074°02'0 0.0
2014-Oct-18 09:24N 40°40' W 074°02'0 0.0
2014-Oct-18 08:33N 40°40' W 074°02'0 0.0
2014-Oct-18 07:33N 40°40' W 074°02'0 0.0
2014-Oct-18 06:33N 40°40' W 074°02'0 0.0
2014-Oct-18 05:33N 40°40' W 074°02'0 0.1
2014-Oct-18 04:33N 40°40' W 074°02'0 0.1
2014-Oct-18 03:33N 40°40' W 074°02'0 0.1
2014-Oct-18 02:33N 40°40' W 074°02'0 0.0
2014-Oct-18 01:33N 40°40' W 074°02'0 0.1
2014-Oct-18 00:33N 40°40' W 074°02'0 0.0
2014-Oct-17 23:33N 40°40' W 074°02'0 0.1
2014-Oct-17 22:33N 40°40' W 074°02'0 0.0
2014-Oct-17 21:33N 40°40' W 074°02'0 0.0
2014-Oct-17 20:33N 40°40' W 074°02'0 0.0
2014-Oct-17 19:33N 40°40' W 074°02'0 0.1
2014-Oct-17 18:33N 40°40' W 074°02'0 0.2
2014-Oct-17 17:33N 40°40' W 074°02'5 5.3
2014-Oct-17 16:33N 40°45' W 073°58'6 6.4
2014-Oct-17 15:33N 40°48' W 073°51'22 6.8
2014-Oct-17 12:22N 40°59' W 073°27'6 7.5
2014-Oct-17 11:33N 41°02' W 073°19'8 7.7
2014-Oct-17 10:33N 41°04' W 073°10'8 8.0
2014-Oct-17 09:33N 41°09' W 073°01'7 6.8
2014-Oct-17 08:33N 41°14' W 072°55'4 3.7
2014-Oct-17 07:33N 41°18' W 072°54'0 0.0
2014-Oct-17 06:33N 41°18' W 072°54'0 0.0
2014-Oct-17 05:31N 41°18' W 072°54'0 0.0
2014-Oct-17 04:32N 41°18' W 072°54'0 0.0
2014-Oct-17 03:33N 41°18' W 072°54'0 0.0
2014-Oct-17 02:32N 41°18' W 072°54'0 0.0
2014-Oct-17 01:31N 41°18' W 072°54'0 0.0
2014-Oct-17 00:33N 41°18' W 072°54'0 0.0
2014-Oct-16 23:33N 41°18' W 072°54'0 0.0
2014-Oct-16 22:32N 41°18' W 072°54'0 0.0
2014-Oct-16 21:33N 41°18' W 072°54'0 0.0
2014-Oct-16 20:33N 41°18' W 072°54'0 0.0
2014-Oct-16 19:33N 41°18' W 072°54'0 0.0
2014-Oct-16 18:33N 41°18' W 072°54'0 0.0
2014-Oct-16 17:33N 41°18' W 072°54'4 3.7
2014-Oct-16 16:33N 41°14' W 072°55'6 5.9
2014-Oct-16 15:33N 41°09' W 072°60'8 7.7
2014-Oct-16 14:33N 41°05' W 073°08'8 7.8
2014-Oct-16 13:33N 41°02' W 073°18'8 8.0
2014-Oct-16 12:32N 40°59' W 073°28'7 7.7
2014-Oct-16 11:33N 40°56' W 073°37'7 7.0
2014-Oct-16 10:33N 40°52' W 073°45'6 5.6
2014-Oct-16 09:33N 40°48' W 073°50'7 6.0
2014-Oct-16 08:26N 40°45' W 073°58'6 6.6
2014-Oct-16 07:33N 40°40' W 074°02'0 0.1
2014-Oct-16 06:27N 40°40' W 074°02'0 0.0
2014-Oct-16 05:33N 40°40' W 074°02'1 0.3
2014-Oct-16 03:33N 40°40' W 074°03'5 5.3
2014-Oct-16 02:33N 40°39' W 074°10'4 3.9
2014-Oct-16 01:33N 40°35' W 074°12'0 0.0
2014-Oct-16 00:33N 40°35' W 074°12'2 2.1
2014-Oct-15 23:33N 40°33' W 074°13'2 1.7
2014-Oct-15 22:25N 40°32' W 074°15'0 0.0
2014-Oct-15 21:33N 40°32' W 074°15'0 0.0
2014-Oct-15 20:32N 40°32' W 074°15'1 0.5
2014-Oct-15 19:33N 40°33' W 074°15'3 3.4
2014-Oct-15 18:33N 40°35' W 074°12'0 0.0
2014-Oct-15 17:33N 40°35' W 074°12'0 0.0
2014-Oct-15 16:33N 40°35' W 074°12'0 0.0
2014-Oct-15 15:33N 40°35' W 074°12'0 0.0
2014-Oct-15 14:33N 40°35' W 074°12'  
Track history (hours):
 
Tides and Currents Weather Stations Pressure Air Temp Water Temp Dewpoint Dewpoint Depression Visibility Wind Speed Wind Dir Waves Ship Positions

Morton S Bouchard Jr

Owner: BOUCHARD TRANSPORTATION CO INC, MELVILLE, NY. More information available from US FCC via Universal Licensing System and Coast Guard Vessel Documentation Center.

Last reported at 2014-Oct-25 13:33 UTC. Time now 2014-Oct-25 14:31 UTC.
Position N 40°48' W 073°54'.

Length 33 m; draft 6 m.

Type: Tug. MMSI: 367006550.

Date/timePositionNaut miles runAvg speedWind from/ knotsBaromVisibWave heightAir tempDewpointWater temp
2014-Oct-25 13:33N 40°48' W 073°54'0 0.0
2014-Oct-25 12:33N 40°48' W 073°54'0 0.0
2014-Oct-25 11:33N 40°48' W 073°54'0 0.0
2014-Oct-25 10:33N 40°48' W 073°54'0 0.0
2014-Oct-25 09:33N 40°48' W 073°54'3 2.5
2014-Oct-25 08:33N 40°46' W 073°57'4 4.0
2014-Oct-25 07:34N 40°43' W 073°58'5 4.7
2014-Oct-25 06:34N 40°40' W 074°03'6 6.3
2014-Oct-25 05:33N 40°39' W 074°11'1 1.0
2014-Oct-25 04:34N 40°39' W 074°10'2 2.2
2014-Oct-25 03:33N 40°39' W 074°07'0 0.0
2014-Oct-25 02:34N 40°39' W 074°07'0 0.0
2014-Oct-25 01:33N 40°39' W 074°07'0 0.0
2014-Oct-25 00:34N 40°39' W 074°07'0 0.0
2014-Oct-24 23:33N 40°39' W 074°07'0 0.0
2014-Oct-24 22:33N 40°39' W 074°07'0 0.0
2014-Oct-24 21:33N 40°39' W 074°07'0 0.0
2014-Oct-24 20:33N 40°39' W 074°07'0 0.0
2014-Oct-24 19:33N 40°39' W 074°07'0 0.0
2014-Oct-24 18:34N 40°39' W 074°07'0 0.0
2014-Oct-24 17:32N 40°39' W 074°07'4 3.8
2014-Oct-24 16:28N 40°38' W 074°12'5 4.9
2014-Oct-24 15:33N 40°39' W 074°07'8 8.1
2014-Oct-24 14:34N 40°44' W 073°58'6 5.6
2014-Oct-24 13:32N 40°48' W 073°53'20 6.7
2014-Oct-24 10:33N 40°60' W 073°32'9 9.1
2014-Oct-24 09:33N 41°03' W 073°20'9 9.0
2014-Oct-24 08:32N 41°06' W 073°09'9 8.7
2014-Oct-24 07:33N 41°11' W 073°00'8 7.6
2014-Oct-24 06:33N 41°17' W 072°55'0 0.2
2014-Oct-24 05:15N 41°18' W 072°54'0 0.0
2014-Oct-23 22:33N 41°17' W 072°55'6 6.5
2014-Oct-23 21:33N 41°12' W 072°59'8 8.0
2014-Oct-23 20:33N 41°07' W 073°07'8 8.4
2014-Oct-23 19:33N 41°04' W 073°17'11 9.1
2014-Oct-23 18:22N 41°00' W 073°31'10 8.6
2014-Oct-23 17:12N 40°55' W 073°42'7 0.9
2014-Oct-23 09:25N 40°49' W 073°47'0 0.0
2014-Oct-23 06:32N 40°49' W 073°47'0 0.0
2014-Oct-22 20:31N 40°49' W 073°47'0 0.0
2014-Oct-22 18:26N 40°49' W 073°47'0 0.0
2014-Oct-22 17:32N 40°49' W 073°47'0 0.0
2014-Oct-22 16:23N 40°49' W 073°47'0 0.0
2014-Oct-22 13:30N 40°49' W 073°47'0 0.0
2014-Oct-22 12:23N 40°49' W 073°47'0 0.0
2014-Oct-22 11:32N 40°49' W 073°47'0 0.1
2014-Oct-22 10:27N 40°49' W 073°47'2 1.0
2014-Oct-22 08:33N 40°48' W 073°49'8 7.9
2014-Oct-22 07:34N 40°45' W 073°58'6 6.0
2014-Oct-22 06:34N 40°40' W 074°03'1 0.7
2014-Oct-22 05:34N 40°39' W 074°03'0 0.0
2014-Oct-22 04:34N 40°39' W 074°03'0 0.0
2014-Oct-22 03:33N 40°39' W 074°03'0 0.1
2014-Oct-22 02:34N 40°39' W 074°03'0 0.2
2014-Oct-22 01:34N 40°39' W 074°03'0 0.1
2014-Oct-22 00:33N 40°39' W 074°03'0 0.1
2014-Oct-21 23:33N 40°39' W 074°03'0 0.0
2014-Oct-21 22:33N 40°39' W 074°03'0 0.1
2014-Oct-21 21:33N 40°39' W 074°03'0 0.2
2014-Oct-21 20:33N 40°39' W 074°03'0 0.1
2014-Oct-21 19:33N 40°39' W 074°03'0 0.0
2014-Oct-21 18:34N 40°39' W 074°03'3 3.3
2014-Oct-21 17:33N 40°39' W 074°07'2 1.7
2014-Oct-21 16:33N 40°38' W 074°09'0 0.2
2014-Oct-21 15:34N 40°38' W 074°09'0 0.0
2014-Oct-21 14:33N 40°38' W 074°09'0 0.2
2014-Oct-21 13:33N 40°38' W 074°09'7 7.1
2014-Oct-21 12:34N 40°42' W 074°01'6 6.4
2014-Oct-21 11:33N 40°47' W 073°56'2 2.2
2014-Oct-21 10:33N 40°48' W 073°53'1110.7
2014-Oct-21 09:33N 40°40' W 074°03'4 3.8
2014-Oct-21 08:33N 40°39' W 074°07'0 0.0
2014-Oct-21 07:33N 40°39' W 074°07'0 0.0
2014-Oct-21 06:33N 40°39' W 074°07'0 0.0
2014-Oct-21 05:33N 40°39' W 074°07'0 0.0
2014-Oct-21 04:33N 40°39' W 074°07'0 0.0
2014-Oct-21 03:33N 40°39' W 074°07'0 0.0
2014-Oct-21 02:33N 40°39' W 074°07'0 0.0
2014-Oct-21 01:33N 40°39' W 074°07'0 0.0
2014-Oct-21 00:33N 40°39' W 074°07'0 0.0
2014-Oct-20 23:33N 40°39' W 074°07'0 0.0
2014-Oct-20 22:33N 40°39' W 074°07'0 0.0
2014-Oct-20 21:33N 40°39' W 074°07'0 0.0
2014-Oct-20 20:33N 40°39' W 074°07'0 0.0
2014-Oct-20 19:33N 40°39' W 074°07'0 0.0
2014-Oct-20 18:33N 40°39' W 074°07'0 0.2
2014-Oct-20 17:33N 40°39' W 074°07'8 7.1
2014-Oct-20 16:28N 40°33' W 074°15'1 0.8
2014-Oct-20 15:29N 40°33' W 074°15'0 0.2
2014-Oct-20 14:19N 40°33' W 074°15'0 0.0
2014-Oct-20 13:29N 40°33' W 074°15'3 2.2
2014-Oct-20 12:15N 40°35' W 074°13'4 6.3
2014-Oct-20 11:33N 40°39' W 074°10'1 0.6
2014-Oct-20 10:33N 40°38' W 074°09'0 0.0
2014-Oct-20 09:33N 40°38' W 074°09'0 0.0
2014-Oct-20 08:33N 40°38' W 074°09'0 0.0
2014-Oct-20 07:33N 40°38' W 074°09'0 0.0
2014-Oct-20 06:33N 40°38' W 074°09'0 0.0
2014-Oct-20 05:33N 40°38' W 074°09'0 0.0
2014-Oct-20 04:33N 40°38' W 074°09'0 0.0
2014-Oct-20 03:33N 40°38' W 074°09'0 0.0
2014-Oct-20 02:33N 40°38' W 074°09'0 0.0
2014-Oct-20 01:33N 40°38' W 074°09'0 0.0
2014-Oct-20 00:33N 40°38' W 074°09'0 0.0
2014-Oct-19 23:33N 40°38' W 074°09'0 0.0
2014-Oct-19 22:33N 40°38' W 074°09'0 0.0
2014-Oct-19 21:33N 40°38' W 074°09'0 0.0
2014-Oct-19 20:33N 40°38' W 074°09'0 0.0
2014-Oct-19 19:31N 40°38' W 074°09'0 0.0
2014-Oct-19 18:33N 40°38' W 074°09'0 0.0
2014-Oct-19 17:33N 40°38' W 074°09'0 0.0
2014-Oct-19 16:33N 40°38' W 074°10'0 0.0
2014-Oct-19 15:33N 40°38' W 074°10'0 0.0
2014-Oct-19 14:33N 40°38' W 074°10'0 0.0
2014-Oct-19 13:33N 40°38' W 074°09'0 0.0
2014-Oct-19 12:33N 40°38' W 074°09'0 0.0
2014-Oct-19 11:33N 40°38' W 074°10'0 0.0
2014-Oct-19 10:33N 40°38' W 074°10'0 0.0
2014-Oct-19 09:29N 40°38' W 074°09'0 0.0
2014-Oct-19 08:33N 40°38' W 074°10'0 0.0
2014-Oct-19 07:33N 40°38' W 074°09'0 0.0
2014-Oct-19 06:33N 40°38' W 074°10'0 0.0
2014-Oct-19 05:33N 40°38' W 074°10'0 0.0
2014-Oct-19 04:33N 40°38' W 074°09'0 0.0
2014-Oct-19 03:33N 40°38' W 074°09'0 0.0
2014-Oct-19 02:33N 40°38' W 074°10'0 0.0
2014-Oct-19 01:33N 40°38' W 074°10'0 0.0
2014-Oct-19 00:33N 40°38' W 074°09'0 0.0
2014-Oct-18 23:33N 40°38' W 074°09'0 0.0
2014-Oct-18 22:33N 40°38' W 074°09'0 0.0
2014-Oct-18 21:33N 40°38' W 074°10'0 0.0
2014-Oct-18 20:33N 40°38' W 074°10'0 0.0
2014-Oct-18 19:33N 40°38' W 074°10'1 1.4
2014-Oct-18 18:33N 40°39' W 074°08'5 4.6
2014-Oct-18 17:33N 40°40' W 074°02'0 0.1
2014-Oct-18 16:29N 40°40' W 074°02'0 0.1
2014-Oct-18 15:31N 40°40' W 074°02'0 0.1
2014-Oct-18 14:33N 40°40' W 074°02'0 0.0
2014-Oct-18 13:30N 40°40' W 074°02'0 0.0
2014-Oct-18 12:33N 40°40' W 074°02'0 0.2
2014-Oct-18 11:33N 40°40' W 074°02'0 0.0
2014-Oct-18 10:28N 40°40' W 074°02'0 0.0
2014-Oct-18 09:24N 40°40' W 074°02'0 0.0
2014-Oct-18 08:33N 40°40' W 074°02'0 0.0
2014-Oct-18 07:33N 40°40' W 074°02'0 0.0
2014-Oct-18 06:33N 40°40' W 074°02'0 0.0
2014-Oct-18 05:33N 40°40' W 074°02'0 0.1
2014-Oct-18 04:33N 40°40' W 074°02'0 0.1
2014-Oct-18 03:33N 40°40' W 074°02'0 0.1
2014-Oct-18 02:33N 40°40' W 074°02'0 0.0
2014-Oct-18 01:33N 40°40' W 074°02'0 0.1
2014-Oct-18 00:33N 40°40' W 074°02'0 0.0
2014-Oct-17 23:33N 40°40' W 074°02'0 0.1
2014-Oct-17 22:33N 40°40' W 074°02'0 0.0
2014-Oct-17 21:33N 40°40' W 074°02'0 0.0
2014-Oct-17 20:33N 40°40' W 074°02'0 0.0
2014-Oct-17 19:33N 40°40' W 074°02'0 0.1
2014-Oct-17 18:33N 40°40' W 074°02'0 0.2
2014-Oct-17 17:33N 40°40' W 074°02'5 5.3
2014-Oct-17 16:33N 40°45' W 073°58'6 6.4
2014-Oct-17 15:33N 40°48' W 073°51'22 6.8
2014-Oct-17 12:22N 40°59' W 073°27'6 7.5
2014-Oct-17 11:33N 41°02' W 073°19'8 7.7
2014-Oct-17 10:33N 41°04' W 073°10'8 8.0
2014-Oct-17 09:33N 41°09' W 073°01'7 6.8
2014-Oct-17 08:33N 41°14' W 072°55'4 3.7
2014-Oct-17 07:33N 41°18' W 072°54'0 0.0
2014-Oct-17 06:33N 41°18' W 072°54'0 0.0
2014-Oct-17 05:31N 41°18' W 072°54'0 0.0
2014-Oct-17 04:32N 41°18' W 072°54'0 0.0
2014-Oct-17 03:33N 41°18' W 072°54'0 0.0
2014-Oct-17 02:32N 41°18' W 072°54'0 0.0
2014-Oct-17 01:31N 41°18' W 072°54'0 0.0
2014-Oct-17 00:33N 41°18' W 072°54'0 0.0
2014-Oct-16 23:33N 41°18' W 072°54'0 0.0
2014-Oct-16 22:32N 41°18' W 072°54'0 0.0
2014-Oct-16 21:33N 41°18' W 072°54'0 0.0
2014-Oct-16 20:33N 41°18' W 072°54'0 0.0
2014-Oct-16 19:33N 41°18' W 072°54'0 0.0
2014-Oct-16 18:33N 41°18' W 072°54'0 0.0
2014-Oct-16 17:33N 41°18' W 072°54'4 3.7
2014-Oct-16 16:33N 41°14' W 072°55'6 5.9
2014-Oct-16 15:33N 41°09' W 072°60'8 7.7
2014-Oct-16 14:33N 41°05' W 073°08'8 7.8
2014-Oct-16 13:33N 41°02' W 073°18'8 8.0
2014-Oct-16 12:32N 40°59' W 073°28'7 7.7
2014-Oct-16 11:33N 40°56' W 073°37'7 7.0
2014-Oct-16 10:33N 40°52' W 073°45'6 5.6
2014-Oct-16 09:33N 40°48' W 073°50'7 6.0
2014-Oct-16 08:26N 40°45' W 073°58'6 6.6
2014-Oct-16 07:33N 40°40' W 074°02'0 0.1
2014-Oct-16 06:27N 40°40' W 074°02'0 0.0
2014-Oct-16 05:33N 40°40' W 074°02'1 0.3
2014-Oct-16 03:33N 40°40' W 074°03'5 5.3
2014-Oct-16 02:33N 40°39' W 074°10'4 3.9
2014-Oct-16 01:33N 40°35' W 074°12'0 0.0
2014-Oct-16 00:33N 40°35' W 074°12'2 2.1
2014-Oct-15 23:33N 40°33' W 074°13'2 1.7
2014-Oct-15 22:25N 40°32' W 074°15'0 0.0
2014-Oct-15 21:33N 40°32' W 074°15'0 0.0
2014-Oct-15 20:32N 40°32' W 074°15'1 0.5
2014-Oct-15 19:33N 40°33' W 074°15'3 3.4
2014-Oct-15 18:33N 40°35' W 074°12'0 0.0
2014-Oct-15 17:33N 40°35' W 074°12'0 0.0
2014-Oct-15 16:33N 40°35' W 074°12'0 0.0
2014-Oct-15 15:33N 40°35' W 074°12'0 0.0
2014-Oct-15 14:33N 40°35' W 074°12'  

Dump ship's entire track history